sensor_id;sensor_type;location;lat;lon;timestamp;P1;durP1;ratioP1;P2;durP2;ratioP2
51226;SDS011;42714;48.260;10.980;2024-01-16T00:35:04;6.4;;;2.0;;
51226;SDS011;42714;48.260;10.980;2024-01-16T00:50:04;9.2;;;2.5;;
51226;SDS011;42714;48.260;10.980;2024-01-16T00:55:05;11.7;;;2.9;;
51226;SDS011;42714;48.260;10.980;2024-01-16T01:05:04;10.7;;;4.7;;
51226;SDS011;42714;48.260;10.980;2024-01-16T01:10:04;9.7;;;3.3;;
51226;SDS011;42714;48.260;10.980;2024-01-16T01:15:04;13.1;;;3.3;;
51226;SDS011;42714;48.260;10.980;2024-01-16T01:35:04;6.4;;;1.6;;
51226;SDS011;42714;48.260;10.980;2024-01-16T01:45:05;7.7;;;2.4;;
51226;SDS011;42714;48.260;10.980;2024-01-16T01:50:05;8.1;;;2.1;;
51226;SDS011;42714;48.260;10.980;2024-01-16T01:55:05;10.8;;;3.0;;
51226;SDS011;42714;48.260;10.980;2024-01-16T02:05:04;8.2;;;2.2;;
51226;SDS011;42714;48.260;10.980;2024-01-16T02:15:04;8.3;;;2.3;;
51226;SDS011;42714;48.260;10.980;2024-01-16T02:25:04;8.0;;;1.7;;
51226;SDS011;42714;48.260;10.980;2024-01-16T02:35:04;7.7;;;2.1;;
51226;SDS011;42714;48.260;10.980;2024-01-16T03:05:04;6.2;;;1.2;;
51226;SDS011;42714;48.260;10.980;2024-01-16T03:10:04;7.4;;;1.6;;
51226;SDS011;42714;48.260;10.980;2024-01-16T03:15:05;3.6;;;1.2;;
51226;SDS011;42714;48.260;10.980;2024-01-16T03:45:05;5.4;;;1.6;;
51226;SDS011;42714;48.260;10.980;2024-01-16T03:55:04;7.2;;;2.1;;
51226;SDS011;42714;48.260;10.980;2024-01-16T04:05:04;7.9;;;1.7;;
51226;SDS011;42714;48.260;10.980;2024-01-16T04:10:06;8.1;;;2.3;;
51226;SDS011;42714;48.260;10.980;2024-01-16T04:25:04;6.3;;;2.0;;
51226;SDS011;42714;48.260;10.980;2024-01-16T04:35:04;8.3;;;2.0;;
51226;SDS011;42714;48.260;10.980;2024-01-16T04:50:04;5.2;;;1.3;;
51226;SDS011;42714;48.260;10.980;2024-01-16T05:05:05;4.4;;;1.3;;
51226;SDS011;42714;48.260;10.980;2024-01-16T05:30:04;10.6;;;2.4;;
51226;SDS011;42714;48.260;10.980;2024-01-16T05:35:05;3.9;;;1.4;;
51226;SDS011;42714;48.260;10.980;2024-01-16T05:55:04;4.9;;;1.1;;
51226;SDS011;42714;48.260;10.980;2024-01-16T06:05:04;9.2;;;2.4;;
51226;SDS011;42714;48.260;10.980;2024-01-16T06:25:04;15.4;;;4.1;;
51226;SDS011;42714;48.260;10.980;2024-01-16T06:35:05;14.9;;;4.7;;
51226;SDS011;42714;48.260;10.980;2024-01-16T06:40:04;11.4;;;3.8;;
51226;SDS011;42714;48.260;10.980;2024-01-16T06:55:04;12.9;;;3.9;;
51226;SDS011;42714;48.260;10.980;2024-01-16T07:05:04;14.8;;;3.5;;
51226;SDS011;42714;48.260;10.980;2024-01-16T07:25:04;11.9;;;3.5;;
51226;SDS011;42714;48.260;10.980;2024-01-16T07:35:04;18.4;;;6.4;;
51226;SDS011;42714;48.260;10.980;2024-01-16T07:55:04;23.7;;;9.1;;
51226;SDS011;42714;48.260;10.980;2024-01-16T08:05:04;17.5;;;4.3;;
51226;SDS011;42714;48.260;10.980;2024-01-16T08:10:04;11.3;;;3.2;;
51226;SDS011;42714;48.260;10.980;2024-01-16T08:25:04;27.5;;;8.9;;
51226;SDS011;42714;48.260;10.980;2024-01-16T08:45:05;18.3;;;6.0;;
51226;SDS011;42714;48.260;10.980;2024-01-16T08:55:04;27.3;;;9.0;;
51226;SDS011;42714;48.260;10.980;2024-01-16T09:05:04;18.8;;;6.6;;
51226;SDS011;42714;48.260;10.980;2024-01-16T09:25:04;35.0;;;9.1;;
51226;SDS011;42714;48.260;10.980;2024-01-16T09:35:05;17.3;;;4.7;;
51226;SDS011;42714;48.260;10.980;2024-01-16T10:05:05;18.4;;;5.1;;
51226;SDS011;42714;48.260;10.980;2024-01-16T10:10:06;33.6;;;13.5;;
51226;SDS011;42714;48.260;10.980;2024-01-16T10:25:06;30.8;;;11.9;;
51226;SDS011;42714;48.260;10.980;2024-01-16T10:35:09;13.3;;;5.3;;
51226;SDS011;42714;48.260;10.980;2024-01-16T10:50:04;13.1;;;4.5;;
51226;SDS011;42714;48.260;10.980;2024-01-16T10:55:04;14.4;;;3.9;;
51226;SDS011;42714;48.260;10.980;2024-01-16T11:05:04;12.7;;;3.9;;
51226;SDS011;42714;48.260;10.980;2024-01-16T11:15:05;163.3;;;50.0;;
51226;SDS011;42714;48.260;10.980;2024-01-16T11:35:04;14.2;;;5.4;;
51226;SDS011;42714;48.260;10.980;2024-01-16T11:50:09;15.9;;;5.8;;
51226;SDS011;42714;48.260;10.980;2024-01-16T11:55:24;13.4;;;5.5;;
51226;SDS011;42714;48.260;10.980;2024-01-16T12:00:04;14.0;;;5.6;;
51226;SDS011;42714;48.260;10.980;2024-01-16T12:05:04;19.1;;;4.8;;
51226;SDS011;42714;48.260;10.980;2024-01-16T12:10:04;17.4;;;6.3;;
51226;SDS011;42714;48.260;10.980;2024-01-16T12:15:05;14.6;;;5.0;;
51226;SDS011;42714;48.260;10.980;2024-01-16T12:20:15;17.2;;;6.0;;
51226;SDS011;42714;48.260;10.980;2024-01-16T12:25:04;18.8;;;8.2;;
51226;SDS011;42714;48.260;10.980;2024-01-16T12:30:07;19.2;;;7.8;;
51226;SDS011;42714;48.260;10.980;2024-01-16T12:35:04;14.3;;;5.6;;
51226;SDS011;42714;48.260;10.980;2024-01-16T12:45:08;15.3;;;4.6;;
51226;SDS011;42714;48.260;10.980;2024-01-16T12:55:05;20.6;;;5.7;;
51226;SDS011;42714;48.260;10.980;2024-01-16T13:00:20;17.3;;;5.1;;
51226;SDS011;42714;48.260;10.980;2024-01-16T13:05:04;12.9;;;5.2;;
51226;SDS011;42714;48.260;10.980;2024-01-16T13:10:05;15.0;;;5.1;;
51226;SDS011;42714;48.260;10.980;2024-01-16T13:15:04;15.2;;;5.5;;
51226;SDS011;42714;48.260;10.980;2024-01-16T13:25:04;12.3;;;4.0;;
51226;SDS011;42714;48.260;10.980;2024-01-16T13:35:04;12.7;;;4.5;;
51226;SDS011;42714;48.260;10.980;2024-01-16T13:45:05;11.9;;;3.5;;
51226;SDS011;42714;48.260;10.980;2024-01-16T13:50:06;13.0;;;4.0;;
51226;SDS011;42714;48.260;10.980;2024-01-16T13:55:05;14.1;;;3.7;;
51226;SDS011;42714;48.260;10.980;2024-01-16T14:00:06;13.8;;;4.2;;
51226;SDS011;42714;48.260;10.980;2024-01-16T14:05:04;18.9;;;3.2;;
51226;SDS011;42714;48.260;10.980;2024-01-16T14:10:05;8.9;;;3.0;;
51226;SDS011;42714;48.260;10.980;2024-01-16T14:35:05;14.1;;;5.0;;
51226;SDS011;42714;48.260;10.980;2024-01-16T14:45:05;12.8;;;5.1;;
51226;SDS011;42714;48.260;10.980;2024-01-16T14:50:05;14.0;;;5.3;;
51226;SDS011;42714;48.260;10.980;2024-01-16T14:55:04;12.9;;;4.4;;
51226;SDS011;42714;48.260;10.980;2024-01-16T15:05:04;13.7;;;5.3;;
51226;SDS011;42714;48.260;10.980;2024-01-16T15:25:05;13.2;;;5.1;;
51226;SDS011;42714;48.260;10.980;2024-01-16T15:35:05;11.8;;;3.6;;
51226;SDS011;42714;48.260;10.980;2024-01-16T15:45:05;28.1;;;9.4;;
51226;SDS011;42714;48.260;10.980;2024-01-16T15:50:05;17.0;;;5.9;;
51226;SDS011;42714;48.260;10.980;2024-01-16T15:55:05;20.3;;;7.8;;
51226;SDS011;42714;48.260;10.980;2024-01-16T16:05:05;22.1;;;7.8;;
51226;SDS011;42714;48.260;10.980;2024-01-16T16:15:05;21.3;;;8.2;;
51226;SDS011;42714;48.260;10.980;2024-01-16T16:35:05;27.2;;;11.6;;
51226;SDS011;42714;48.260;10.980;2024-01-16T16:50:05;36.8;;;12.4;;
51226;SDS011;42714;48.260;10.980;2024-01-16T16:55:05;42.5;;;15.7;;
51226;SDS011;42714;48.260;10.980;2024-01-16T17:05:05;53.3;;;18.9;;
51226;SDS011;42714;48.260;10.980;2024-01-16T17:15:05;55.1;;;17.9;;
51226;SDS011;42714;48.260;10.980;2024-01-16T17:20:07;55.4;;;18.1;;
51226;SDS011;42714;48.260;10.980;2024-01-16T17:25:05;55.7;;;16.8;;
51226;SDS011;42714;48.260;10.980;2024-01-16T17:35:05;53.1;;;19.6;;
51226;SDS011;42714;48.260;10.980;2024-01-16T17:55:05;48.0;;;16.6;;
51226;SDS011;42714;48.260;10.980;2024-01-16T18:05:05;93.1;;;36.0;;
51226;SDS011;42714;48.260;10.980;2024-01-16T18:15:06;63.6;;;21.1;;
51226;SDS011;42714;48.260;10.980;2024-01-16T18:20:06;90.4;;;35.1;;
51226;SDS011;42714;48.260;10.980;2024-01-16T18:25:05;126.5;;;45.2;;
51226;SDS011;42714;48.260;10.980;2024-01-16T18:35:05;63.4;;;24.0;;
51226;SDS011;42714;48.260;10.980;2024-01-16T18:55:06;92.9;;;32.7;;
51226;SDS011;42714;48.260;10.980;2024-01-16T19:05:05;95.7;;;33.7;;
51226;SDS011;42714;48.260;10.980;2024-01-16T19:25:05;81.5;;;29.9;;
51226;SDS011;42714;48.260;10.980;2024-01-16T19:35:05;91.7;;;31.9;;
51226;SDS011;42714;48.260;10.980;2024-01-16T19:40:05;80.7;;;30.6;;
51226;SDS011;42714;48.260;10.980;2024-01-16T19:45:07;79.3;;;28.2;;
51226;SDS011;42714;48.260;10.980;2024-01-16T19:50:05;64.3;;;20.9;;
51226;SDS011;42714;48.260;10.980;2024-01-16T19:55:05;72.1;;;26.3;;
51226;SDS011;42714;48.260;10.980;2024-01-16T20:20:05;75.1;;;29.8;;
51226;SDS011;42714;48.260;10.980;2024-01-16T20:25:05;81.7;;;31.6;;
51226;SDS011;42714;48.260;10.980;2024-01-16T20:30:06;78.1;;;30.0;;
51226;SDS011;42714;48.260;10.980;2024-01-16T20:35:06;66.0;;;24.0;;
51226;SDS011;42714;48.260;10.980;2024-01-16T20:45:06;72.7;;;29.4;;
51226;SDS011;42714;48.260;10.980;2024-01-16T20:55:05;71.1;;;26.3;;
51226;SDS011;42714;48.260;10.980;2024-01-16T21:05:06;56.0;;;19.6;;
51226;SDS011;42714;48.260;10.980;2024-01-16T21:10:05;59.4;;;20.4;;
51226;SDS011;42714;48.260;10.980;2024-01-16T21:25:05;55.5;;;20.4;;
51226;SDS011;42714;48.260;10.980;2024-01-16T21:35:05;70.5;;;26.0;;
51226;SDS011;42714;48.260;10.980;2024-01-16T21:45:05;65.3;;;23.1;;
51226;SDS011;42714;48.260;10.980;2024-01-16T21:50:05;63.0;;;23.3;;
51226;SDS011;42714;48.260;10.980;2024-01-16T22:05:06;53.9;;;20.6;;
51226;SDS011;42714;48.260;10.980;2024-01-16T22:25:05;66.1;;;23.8;;
51226;SDS011;42714;48.260;10.980;2024-01-16T22:35:05;67.0;;;21.7;;
51226;SDS011;42714;48.260;10.980;2024-01-16T22:45:06;57.5;;;20.9;;
51226;SDS011;42714;48.260;10.980;2024-01-16T22:55:05;54.2;;;17.7;;
51226;SDS011;42714;48.260;10.980;2024-01-16T23:05:05;65.7;;;22.0;;
51226;SDS011;42714;48.260;10.980;2024-01-16T23:10:05;64.5;;;23.6;;
51226;SDS011;42714;48.260;10.980;2024-01-16T23:15:06;69.0;;;25.8;;
51226;SDS011;42714;48.260;10.980;2024-01-16T23:20:06;70.8;;;25.2;;
51226;SDS011;42714;48.260;10.980;2024-01-16T23:30:06;57.5;;;18.3;;
51226;SDS011;42714;48.260;10.980;2024-01-16T23:35:05;52.1;;;17.1;;
51226;SDS011;42714;48.260;10.980;2024-01-16T23:45:05;49.6;;;17.9;;
51226;SDS011;42714;48.260;10.980;2024-01-16T23:50:06;95.2;;;30.1;;
